Cap FAP David Abenzur Rengifo International Airport
SPCL : rendu visible

Aérodrome :











RETROUVEZ-NOUS SUR...

 
LOGIN :

S'inscrire | Disclaimer

   EN    FR    IT 

 









Légende :    VFR   VFR Marginal   IFR   IFR Intensif   IFR Très Intensif
Visi : 
Plafond : 
>= 8 km
>= 3000ft
5 à 8 km
1000 à 3000 ft
1500m à 5 km
500 à 1000 ft
800 à 1500m
200 à 500 ft
< 800m
< 200 ft
Symboles :   Orages  Brouillard  Fortes neiges  Fortes précipitations  Vent > 20 kt






- Altitude de l'aérodrome : 513 ft
- Code IATA : PCL


SPCL - Cap FAP David Abenzur Rengifo International

DERNIER METAR :
  • 210400Z 05004KT 9999 SCT015 28/24 Q1009 RMK PP000

METARs EXPIRÉS :
  • 210300Z 03004KT 9999 SCT015 28/25 Q1009 RMK PP000
  • 210200Z 07006KT 9999 SCT015 29/25 Q1008 RMK PP000

TAF SPCL
Valide du 21 à 00h jusqu'au 22 à 00h UTC


202300Z 2100/2124 01004KT 9999 SCT020 TX33/2119Z TN23/2111Z
TEMPO 2108/2112 4000 BCFG BKN010 BKN080
TEMPO 2118/2122 BKN025 BKN080



MET'MAP, la Météo Aéronautique d'un coup d'oeil ! - Copyright ORBIFLY Décembre 2007 - Disclaimer

ORBIFLY MET'MAP TEAM :

Programmation & Développement : Alexandra Zaïnal
Sur une idée originale de : Baudouin d'Aumeries
Assistance à la programmation : Marc-Olivier Méhu
Soutien technique & logistique : Manuel Goepfert

Contact : metmap@orbifly.com




SOURCES & CREDITS :

   NOAA       Earth
Advisory